Time,TemperatureF,DewpointF,PressureIn,WindDirection,WindDirectionDegrees,WindSpeedMPH,WindSpeedGustMPH,Humidity,HourlyPrecipIn,Conditions,Clouds,dailyrainin,SoftwareType,DateUTC
2013-07-06 00:00:00,69.1,68.2,30.14,SSE,164,0.0,0.0,97,0.00,,,0.00,VWS V14.01,2013-07-06 04:00:00,
2013-07-06 00:03:00,69.1,68.2,30.14,SSE,164,0.0,0.0,97,0.00,,,0.00,VWS V14.01,2013-07-06 04:03:00,
2013-07-06 00:08:00,69.1,68.2,30.14,SSE,164,0.0,0.0,97,0.00,,,0.00,VWS V14.01,2013-07-06 04:08:00,
2013-07-06 00:10:00,69.1,68.2,30.14,SSE,164,0.0,0.0,97,0.00,,,0.00,VWS V14.01,2013-07-06 04:10:00,
2013-07-06 00:13:00,69.1,68.2,30.14,SSE,164,0.0,0.0,97,0.00,,,0.00,VWS V14.01,2013-07-06 04:13:00,
2013-07-06 00:18:00,69.1,68.2,30.14,SSE,164,0.0,0.0,97,0.00,,,0.00,VWS V14.01,2013-07-06 04:18:00,
2013-07-06 00:20:00,69.1,68.2,30.14,SSE,164,0.0,0.0,97,0.00,,,0.00,VWS V14.01,2013-07-06 04:20:00,
2013-07-06 00:23:00,69.1,68.2,30.14,SSE,164,0.0,0.0,97,0.00,,,0.00,VWS V14.01,2013-07-06 04:23:00,
2013-07-06 00:28:00,69.1,68.2,30.14,SSE,164,0.0,0.0,97,0.00,,,0.00,VWS V14.01,2013-07-06 04:28:00,
2013-07-06 00:30:00,69.1,68.2,30.14,SSE,164,0.0,0.0,97,0.00,,,0.00,VWS V14.01,2013-07-06 04:30:00,
2013-07-06 00:33:00,69.1,68.2,30.14,SSE,164,0.0,0.0,97,0.00,,,0.00,VWS V14.01,2013-07-06 04:33:00,
2013-07-06 00:38:00,68.9,68.0,30.14,SSE,164,0.0,0.0,97,0.00,,,0.00,VWS V14.01,2013-07-06 04:38:00,
2013-07-06 00:40:00,68.9,68.0,30.14,SSE,164,0.0,0.0,97,0.00,,,0.00,VWS V14.01,2013-07-06 04:40:00,
2013-07-06 00:43:00,68.9,68.0,30.14,SSE,164,0.0,0.0,97,0.00,,,0.00,VWS V14.01,2013-07-06 04:43:00,
2013-07-06 00:48:00,68.9,68.0,30.14,SSE,164,0.0,0.0,97,0.00,,,0.00,VWS V14.01,2013-07-06 04:48:00,
2013-07-06 00:50:00,68.9,68.0,30.14,SSE,164,0.0,0.0,97,0.00,,,0.00,VWS V14.01,2013-07-06 04:50:00,
2013-07-06 00:53:00,68.9,68.0,30.14,SSE,164,0.0,0.0,97,0.00,,,0.00,VWS V14.01,2013-07-06 04:53:00,
2013-07-06 00:58:00,68.9,68.0,30.14,SSE,164,0.0,0.0,97,0.00,,,0.00,VWS V14.01,2013-07-06 04:58:00,
2013-07-06 01:00:00,68.9,68.0,30.13,SSE,164,0.0,0.0,97,0.00,,,0.00,VWS V14.01,2013-07-06 05:00:00,
2013-07-06 01:03:00,68.9,68.0,30.13,SSE,164,0.0,0.0,97,0.00,,,0.00,VWS V14.01,2013-07-06 05:03:00,
2013-07-06 01:08:00,68.9,68.0,30.13,SSE,164,0.0,0.0,97,0.00,,,0.00,VWS V14.01,2013-07-06 05:08:00,
2013-07-06 01:10:00,68.9,68.0,30.13,SSE,164,0.0,0.0,97,0.00,,,0.00,VWS V14.01,2013-07-06 05:10:00,
2013-07-06 01:13:00,68.9,68.0,30.13,SSE,164,0.0,0.0,97,0.00,,,0.00,VWS V14.01,2013-07-06 05:13:00,
2013-07-06 01:18:00,68.9,68.0,30.13,SSE,164,0.0,0.0,97,0.00,,,0.00,VWS V14.01,2013-07-06 05:18:00,
2013-07-06 01:20:00,68.9,68.0,30.13,SSE,164,0.0,0.0,97,0.00,,,0.00,VWS V14.01,2013-07-06 05:20:00,
2013-07-06 01:23:00,68.9,68.0,30.13,SSE,164,0.0,0.0,97,0.00,,,0.00,VWS V14.01,2013-07-06 05:23:00,
2013-07-06 01:28:00,68.9,68.0,30.13,SSE,164,0.0,0.0,97,0.01,,,0.01,VWS V14.01,2013-07-06 05:28:00,
2013-07-06 01:30:00,68.9,68.0,30.13,SSE,164,0.0,0.0,97,0.01,,,0.01,VWS V14.01,2013-07-06 05:30:00,
2013-07-06 01:33:00,68.9,68.0,30.13,SSE,164,0.0,0.0,97,0.01,,,0.01,VWS V14.01,2013-07-06 05:33:00,
2013-07-06 01:38:00,68.9,68.0,30.13,SSE,164,0.0,0.0,97,0.01,,,0.01,VWS V14.01,2013-07-06 05:38:00,
2013-07-06 01:40:00,69.1,68.2,30.13,SSE,164,0.0,0.0,97,0.02,,,0.02,VWS V14.01,2013-07-06 05:40:00,
2013-07-06 01:43:00,69.1,68.2,30.13,SSE,164,0.0,0.0,97,0.04,,,0.04,VWS V14.01,2013-07-06 05:43:00,
2013-07-06 01:48:00,68.9,68.0,30.13,SSW,207,1.0,0.0,97,0.04,,,0.04,VWS V14.01,2013-07-06 05:48:00,
2013-07-06 01:50:00,68.9,68.0,30.13,SSW,208,0.0,0.0,97,0.04,,,0.04,VWS V14.01,2013-07-06 05:50:00,
2013-07-06 01:53:00,68.9,68.0,30.13,SSW,208,0.0,0.0,97,0.05,,,0.05,VWS V14.01,2013-07-06 05:53:00,
2013-07-06 01:58:00,68.8,67.9,30.13,SSW,208,0.0,0.0,97,0.05,,,0.05,VWS V14.01,2013-07-06 05:58:00,
2013-07-06 02:00:00,68.8,67.9,30.13,SSW,208,0.0,0.0,97,0.05,,,0.05,VWS V14.01,2013-07-06 06:00:00,
2013-07-06 02:03:00,68.8,67.9,30.13,SSW,208,0.0,0.0,97,0.05,,,0.05,VWS V14.01,2013-07-06 06:03:00,
2013-07-06 02:08:00,68.8,67.9,30.13,SSW,208,0.0,0.0,97,0.05,,,0.05,VWS V14.01,2013-07-06 06:08:00,
2013-07-06 02:10:00,68.8,67.9,30.13,SSW,208,0.0,0.0,97,0.05,,,0.05,VWS V14.01,2013-07-06 06:10:00,
2013-07-06 02:13:00,68.6,67.7,30.13,SSW,208,0.0,0.0,97,0.05,,,0.05,VWS V14.01,2013-07-06 06:13:00,
2013-07-06 02:18:00,68.6,67.7,30.12,SSW,208,0.0,0.0,97,0.06,,,0.06,VWS V14.01,2013-07-06 06:18:00,
2013-07-06 02:20:00,68.6,67.7,30.12,SSW,208,0.0,0.0,97,0.06,,,0.06,VWS V14.01,2013-07-06 06:20:00,
2013-07-06 02:23:00,68.6,67.7,30.12,SSW,208,0.0,0.0,97,0.06,,,0.06,VWS V14.01,2013-07-06 06:23:00,
2013-07-06 02:28:00,68.6,67.7,30.12,SSW,208,0.0,0.0,97,0.06,,,0.06,VWS V14.01,2013-07-06 06:28:00,
2013-07-06 02:30:00,68.6,67.7,30.13,SSW,208,0.0,0.0,97,0.06,,,0.06,VWS V14.01,2013-07-06 06:30:00,
2013-07-06 02:33:00,68.6,67.7,30.13,SSW,208,0.0,0.0,97,0.05,,,0.06,VWS V14.01,2013-07-06 06:33:00,
2013-07-06 02:38:00,68.4,67.5,30.13,SSW,208,0.0,0.0,97,0.05,,,0.06,VWS V14.01,2013-07-06 06:38:00,
2013-07-06 02:40:00,68.4,67.5,30.13,SSW,208,0.0,0.0,97,0.05,,,0.06,VWS V14.01,2013-07-06 06:40:00,
2013-07-06 02:43:00,68.4,67.5,30.13,SSW,208,0.0,0.0,97,0.04,,,0.06,VWS V14.01,2013-07-06 06:43:00,
2013-07-06 02:48:00,68.3,67.4,30.12,SSW,208,0.0,0.0,97,0.04,,,0.06,VWS V14.01,2013-07-06 06:48:00,
2013-07-06 02:50:00,68.3,67.4,30.12,SSW,208,0.0,0.0,97,0.04,,,0.06,VWS V14.01,2013-07-06 06:50:00,
2013-07-06 02:53:00,68.3,67.4,30.12,SSW,208,0.0,0.0,97,0.02,,,0.06,VWS V14.01,2013-07-06 06:53:00,
2013-07-06 02:58:00,68.1,67.2,30.12,SSW,208,0.0,0.0,97,0.02,,,0.06,VWS V14.01,2013-07-06 06:58:00,
2013-07-06 03:00:00,68.1,67.2,30.12,SSW,208,0.0,0.0,97,0.02,,,0.06,VWS V14.01,2013-07-06 07:00:00,
2013-07-06 03:03:00,68.1,67.2,30.12,SSW,208,0.0,0.0,97,0.01,,,0.06,VWS V14.01,2013-07-06 07:03:00,
2013-07-06 03:08:00,68.1,67.2,30.12,SSW,208,0.0,0.0,97,0.01,,,0.06,VWS V14.01,2013-07-06 07:08:00,
2013-07-06 03:10:00,68.1,67.2,30.12,SSW,208,0.0,0.0,97,0.01,,,0.06,VWS V14.01,2013-07-06 07:10:00,
2013-07-06 03:13:00,68.1,67.2,30.12,SSW,208,0.0,0.0,97,0.01,,,0.06,VWS V14.01,2013-07-06 07:13:00,
2013-07-06 03:18:00,68.1,67.2,30.12,SSW,208,0.0,0.0,97,0.01,,,0.06,VWS V14.01,2013-07-06 07:18:00,
2013-07-06 03:20:00,68.1,67.2,30.12,SSW,208,0.0,0.0,97,0.01,,,0.06,VWS V14.01,2013-07-06 07:20:00,
2013-07-06 03:24:00,68.1,67.2,30.12,SSW,208,0.0,0.0,97,0.00,,,0.06,VWS V14.01,2013-07-06 07:24:00,
2013-07-06 03:29:00,68.1,67.2,30.12,SSW,208,0.0,0.0,97,0.00,,,0.06,VWS V14.01,2013-07-06 07:29:00,
2013-07-06 03:30:00,68.1,67.2,30.11,SSW,208,0.0,0.0,97,0.00,,,0.06,VWS V14.01,2013-07-06 07:30:00,
2013-07-06 03:33:00,68.1,67.2,30.11,SSW,208,0.0,0.0,97,0.00,,,0.06,VWS V14.01,2013-07-06 07:33:00,
2013-07-06 03:39:00,68.1,67.2,30.11,SSW,208,0.0,0.0,97,0.00,,,0.06,VWS V14.01,2013-07-06 07:39:00,
2013-07-06 03:44:00,68.1,67.2,30.11,SSW,208,0.0,0.0,97,0.00,,,0.06,VWS V14.01,2013-07-06 07:44:00,
2013-07-06 03:50:00,68.1,67.2,30.11,SSW,208,0.0,0.0,97,0.00,,,0.06,VWS V14.01,2013-07-06 07:50:00,
2013-07-06 03:54:00,68.3,67.4,30.11,SSW,208,0.0,0.0,97,0.00,,,0.06,VWS V14.01,2013-07-06 07:54:00,
2013-07-06 03:59:00,68.3,67.4,30.11,SSW,208,0.0,0.0,97,0.00,,,0.06,VWS V14.01,2013-07-06 07:59:00,
2013-07-06 04:00:00,68.3,67.4,30.11,SSW,208,0.0,0.0,97,0.00,,,0.06,VWS V14.01,2013-07-06 08:00:00,
2013-07-06 04:04:00,68.3,67.4,30.11,SSW,208,0.0,0.0,97,0.00,,,0.06,VWS V14.01,2013-07-06 08:04:00,
2013-07-06 04:09:00,68.4,67.5,30.11,SSW,208,0.0,0.0,97,0.00,,,0.06,VWS V14.01,2013-07-06 08:09:00,
2013-07-06 04:10:00,68.4,67.5,30.11,SSW,208,0.0,0.0,97,0.00,,,0.06,VWS V14.01,2013-07-06 08:10:00,
2013-07-06 04:19:00,68.4,67.5,30.11,SSW,208,0.0,0.0,97,0.03,,,0.09,VWS V14.01,2013-07-06 08:19:00,
2013-07-06 04:30:00,68.4,67.5,30.10,SSW,208,0.0,0.0,97,0.07,,,0.13,VWS V14.01,2013-07-06 08:30:00,
2013-07-06 04:44:00,68.1,67.2,30.11,SSW,208,0.0,0.0,97,0.00,,,0.06,VWS V14.01,2013-07-06 08:44:00,
2013-07-06 04:49:00,68.4,67.5,30.10,SSW,208,0.0,0.0,97,0.10,,,0.16,VWS V14.01,2013-07-06 08:49:00,
2013-07-06 04:53:00,68.1,67.2,30.11,SSW,208,0.0,0.0,97,0.00,,,0.06,VWS V14.01,2013-07-06 08:53:00,
2013-07-06 04:54:00,68.4,67.5,30.10,SSW,208,0.0,0.0,97,0.11,,,0.17,VWS V14.01,2013-07-06 08:54:00,
2013-07-06 04:59:00,68.4,67.5,30.10,SSW,208,0.0,0.0,97,0.12,,,0.18,VWS V14.01,2013-07-06 08:59:00,
2013-07-06 05:10:00,68.3,67.4,30.10,SSW,208,0.0,0.0,97,0.12,,,0.18,VWS V14.01,2013-07-06 09:10:00,
2013-07-06 05:18:00,68.4,67.5,30.11,SSW,208,0.0,0.0,97,0.02,,,0.08,VWS V14.01,2013-07-06 09:18:00,
2013-07-06 05:24:00,68.4,67.5,30.11,SSW,208,0.0,0.0,97,0.03,,,0.09,VWS V14.01,2013-07-06 09:24:00,
2013-07-06 05:33:00,68.4,67.5,30.10,SSW,208,0.0,0.0,97,0.06,,,0.12,VWS V14.01,2013-07-06 09:33:00,
2013-07-06 05:34:00,68.3,67.4,30.10,SSW,208,0.0,0.0,97,0.06,,,0.19,VWS V14.01,2013-07-06 09:34:00,
2013-07-06 05:38:00,68.4,67.5,30.10,SSW,208,0.0,0.0,97,0.08,,,0.14,VWS V14.01,2013-07-06 09:38:00,
2013-07-06 05:43:00,68.4,67.5,30.10,SSW,208,0.0,0.0,97,0.08,,,0.14,VWS V14.01,2013-07-06 09:43:00,
2013-07-06 05:48:00,68.4,67.5,30.10,SSW,208,0.0,0.0,97,0.08,,,0.14,VWS V14.01,2013-07-06 09:48:00,
2013-07-06 05:54:00,68.4,67.5,30.10,SSW,208,0.0,0.0,97,0.10,,,0.16,VWS V14.01,2013-07-06 09:54:00,
2013-07-06 06:04:00,68.4,67.5,30.10,SSW,208,0.0,0.0,97,0.12,,,0.18,VWS V14.01,2013-07-06 10:04:00,
2013-07-06 06:13:00,68.3,67.4,30.10,SSW,208,0.0,0.0,97,0.12,,,0.18,VWS V14.01,2013-07-06 10:13:00,
2013-07-06 06:18:00,68.3,67.4,30.10,SSW,208,0.0,0.0,97,0.12,,,0.18,VWS V14.01,2013-07-06 10:18:00,
2013-07-06 06:23:00,68.3,67.4,30.10,SSW,208,0.0,0.0,97,0.12,,,0.18,VWS V14.01,2013-07-06 10:23:00,
2013-07-06 06:28:00,68.3,67.4,30.10,SSW,208,0.0,0.0,97,0.10,,,0.19,VWS V14.01,2013-07-06 10:28:00,
2013-07-06 06:33:00,68.3,67.4,30.10,SSW,208,0.0,0.0,97,0.10,,,0.19,VWS V14.01,2013-07-06 10:33:00,
2013-07-06 06:43:00,68.3,67.4,30.10,SSW,208,0.0,0.0,97,0.07,,,0.20,VWS V14.01,2013-07-06 10:43:00,
2013-07-06 06:48:00,68.3,67.4,30.10,South,178,0.0,0.0,97,0.06,,,0.20,VWS V14.01,2013-07-06 10:48:00,
2013-07-06 06:53:00,68.3,67.4,30.10,South,178,0.0,0.0,97,0.07,,,0.21,VWS V14.01,2013-07-06 10:53:00,
2013-07-06 06:58:00,68.3,67.4,30.10,South,178,0.0,0.0,97,0.07,,,0.23,VWS V14.01,2013-07-06 10:58:00,
2013-07-06 07:03:00,68.3,67.4,30.10,South,178,0.0,0.0,97,0.08,,,0.24,VWS V14.01,2013-07-06 11:03:00,
2013-07-06 07:08:00,68.3,67.4,30.10,South,178,0.0,0.0,97,0.07,,,0.25,VWS V14.01,2013-07-06 11:08:00,
2013-07-06 07:13:00,68.3,67.4,30.10,South,178,0.0,0.0,97,0.09,,,0.27,VWS V14.01,2013-07-06 11:13:00,
2013-07-06 07:18:00,68.3,67.4,30.10,South,178,0.0,0.0,97,0.11,,,0.29,VWS V14.01,2013-07-06 11:18:00,
2013-07-06 07:23:00,68.3,67.4,30.10,South,178,0.0,0.0,97,0.11,,,0.29,VWS V14.01,2013-07-06 11:23:00,
2013-07-06 07:28:00,68.3,67.4,30.10,South,178,0.0,0.0,97,0.12,,,0.31,VWS V14.01,2013-07-06 11:28:00,
2013-07-06 07:33:00,68.3,67.4,30.10,South,178,0.0,0.0,97,0.12,,,0.31,VWS V14.01,2013-07-06 11:33:00,
2013-07-06 07:38:00,68.3,67.4,30.10,South,178,0.0,0.0,97,0.12,,,0.31,VWS V14.01,2013-07-06 11:38:00,
2013-07-06 07:43:00,68.4,67.5,30.10,South,178,0.0,0.0,97,0.12,,,0.31,VWS V14.01,2013-07-06 11:43:00,
2013-07-06 07:48:00,68.4,67.5,30.10,South,178,0.0,0.0,97,0.12,,,0.32,VWS V14.01,2013-07-06 11:48:00,
2013-07-06 07:53:00,68.4,67.5,30.10,South,178,0.0,0.0,97,0.12,,,0.32,VWS V14.01,2013-07-06 11:53:00,
2013-07-06 07:58:00,68.4,67.5,30.10,South,178,0.0,0.0,97,0.10,,,0.32,VWS V14.01,2013-07-06 11:58:00,
2013-07-06 08:03:00,68.4,67.5,30.10,South,178,0.0,0.0,97,0.10,,,0.32,VWS V14.01,2013-07-06 12:03:00,
2013-07-06 08:08:00,68.6,67.7,30.10,South,178,0.0,0.0,97,0.08,,,0.32,VWS V14.01,2013-07-06 12:08:00,
2013-07-06 08:13:00,68.6,67.7,30.10,South,178,0.0,0.0,97,0.08,,,0.32,VWS V14.01,2013-07-06 12:13:00,
2013-07-06 08:18:00,68.6,67.7,30.09,South,178,0.0,0.0,97,0.04,,,0.32,VWS V14.01,2013-07-06 12:18:00,
2013-07-06 08:23:00,68.6,67.7,30.09,South,178,0.0,0.0,97,0.04,,,0.32,VWS V14.01,2013-07-06 12:23:00,
2013-07-06 08:28:00,68.8,67.9,30.09,South,178,0.0,0.0,97,0.03,,,0.32,VWS V14.01,2013-07-06 12:28:00,
2013-07-06 08:33:00,68.8,67.9,30.09,South,178,0.0,0.0,97,0.03,,,0.32,VWS V14.01,2013-07-06 12:33:00,
2013-07-06 08:38:00,68.8,67.9,30.09,South,178,0.0,0.0,97,0.01,,,0.32,VWS V14.01,2013-07-06 12:38:00,
2013-07-06 08:43:00,68.8,67.9,30.09,NE,54,0.0,0.0,97,0.02,,,0.33,VWS V14.01,2013-07-06 12:43:00,
2013-07-06 08:48:00,68.9,68.0,30.09,NE,54,0.0,0.0,97,0.03,,,0.34,VWS V14.01,2013-07-06 12:48:00,
2013-07-06 08:53:00,68.9,68.0,30.09,NE,54,0.0,0.0,97,0.03,,,0.34,VWS V14.01,2013-07-06 12:53:00,
2013-07-06 08:58:00,68.9,68.0,30.09,NE,54,0.0,0.0,97,0.03,,,0.35,VWS V14.01,2013-07-06 12:58:00,
2013-07-06 09:03:00,68.9,68.0,30.09,SSW,211,0.0,0.0,97,0.03,,,0.35,VWS V14.01,2013-07-06 13:03:00,
2013-07-06 09:08:00,68.8,67.9,30.09,SSW,211,0.0,0.0,97,0.03,,,0.35,VWS V14.01,2013-07-06 13:08:00,
2013-07-06 09:13:00,68.8,67.9,30.09,SSW,211,0.0,0.0,97,0.03,,,0.35,VWS V14.01,2013-07-06 13:13:00,
2013-07-06 09:18:00,68.9,68.0,30.09,SSW,211,0.0,0.0,97,0.04,,,0.36,VWS V14.01,2013-07-06 13:18:00,
2013-07-06 09:23:00,68.9,68.0,30.09,SW,220,0.0,0.0,97,0.04,,,0.36,VWS V14.01,2013-07-06 13:23:00,
2013-07-06 09:28:00,69.1,68.2,30.09,SE,146,0.0,0.0,97,0.04,,,0.36,VWS V14.01,2013-07-06 13:28:00,
2013-07-06 09:33:00,69.1,68.2,30.10,South,175,0.0,0.0,97,0.04,,,0.36,VWS V14.01,2013-07-06 13:33:00,
2013-07-06 09:38:00,69.1,68.2,30.10,NW,325,1.0,0.0,97,0.05,,,0.37,VWS V14.01,2013-07-06 13:38:00,
2013-07-06 09:43:00,68.9,68.0,30.10,SSW,193,2.0,0.0,97,0.06,,,0.38,VWS V14.01,2013-07-06 13:43:00,
2013-07-06 09:48:00,68.1,67.2,30.11,SSW,196,2.0,0.0,97,0.06,,,0.39,VWS V14.01,2013-07-06 13:48:00,
2013-07-06 09:53:00,67.8,66.9,30.11,SSW,196,0.0,0.0,97,0.07,,,0.40,VWS V14.01,2013-07-06 13:53:00,
2013-07-06 09:58:00,67.6,66.7,30.11,SSW,196,0.0,0.0,97,0.07,,,0.41,VWS V14.01,2013-07-06 13:58:00,
2013-07-06 10:03:00,67.6,66.7,30.11,SSW,196,0.0,0.0,97,0.08,,,0.42,VWS V14.01,2013-07-06 14:03:00,
2013-07-06 10:08:00,67.6,66.7,30.11,SSW,196,0.0,0.0,97,0.07,,,0.42,VWS V14.01,2013-07-06 14:08:00,
2013-07-06 10:13:00,67.8,66.9,30.11,SSW,196,0.0,0.0,97,0.07,,,0.42,VWS V14.01,2013-07-06 14:13:00,
2013-07-06 10:18:00,67.9,67.0,30.11,SSW,196,0.0,0.0,97,0.06,,,0.42,VWS V14.01,2013-07-06 14:18:00,
2013-07-06 10:24:00,68.1,67.2,30.11,SSW,196,0.0,0.0,97,0.06,,,0.42,VWS V14.01,2013-07-06 14:24:00,
2013-07-06 10:29:00,68.1,67.2,30.11,SSW,196,0.0,0.0,97,0.06,,,0.42,VWS V14.01,2013-07-06 14:29:00,
2013-07-06 10:34:00,68.4,67.5,30.10,SSW,196,0.0,0.0,97,0.07,,,0.43,VWS V14.01,2013-07-06 14:34:00,
2013-07-06 10:39:00,68.8,67.9,30.10,SSW,196,0.0,0.0,97,0.07,,,0.43,VWS V14.01,2013-07-06 14:39:00,
2013-07-06 10:44:00,68.9,68.0,30.10,SSW,196,0.0,0.0,97,0.07,,,0.43,VWS V14.01,2013-07-06 14:44:00,
2013-07-06 10:49:00,69.3,68.4,30.10,SSW,196,0.0,0.0,97,0.05,,,0.43,VWS V14.01,2013-07-06 14:49:00,
2013-07-06 10:54:00,69.4,68.5,30.10,SSW,196,0.0,0.0,97,0.05,,,0.43,VWS V14.01,2013-07-06 14:54:00,
2013-07-06 10:59:00,69.8,68.9,30.10,SSW,196,0.0,0.0,97,0.03,,,0.43,VWS V14.01,2013-07-06 14:59:00,
2013-07-06 11:04:00,69.8,68.9,30.10,SSW,196,0.0,0.0,97,0.03,,,0.43,VWS V14.01,2013-07-06 15:04:00,
2013-07-06 11:09:00,69.9,69.0,30.10,SSW,196,0.0,0.0,97,0.01,,,0.43,VWS V14.01,2013-07-06 15:09:00,
2013-07-06 11:14:00,69.9,68.7,30.10,SSW,196,0.0,0.0,96,0.01,,,0.43,VWS V14.01,2013-07-06 15:14:00,
2013-07-06 11:19:00,69.9,68.7,30.10,SSW,196,0.0,0.0,96,0.01,,,0.43,VWS V14.01,2013-07-06 15:19:00,
2013-07-06 11:24:00,69.9,68.7,30.10,South,190,0.0,0.0,96,0.01,,,0.43,VWS V14.01,2013-07-06 15:24:00,
2013-07-06 11:29:00,70.1,68.9,30.10,South,190,0.0,0.0,96,0.01,,,0.43,VWS V14.01,2013-07-06 15:29:00,
2013-07-06 11:34:00,69.9,68.4,30.09,South,190,0.0,0.0,95,0.00,,,0.43,VWS V14.01,2013-07-06 15:34:00,
2013-07-06 11:39:00,70.1,68.3,30.09,South,190,0.0,0.0,94,0.00,,,0.43,VWS V14.01,2013-07-06 15:39:00,
2013-07-06 11:44:00,70.3,68.5,30.09,South,190,0.0,0.0,94,0.00,,,0.43,VWS V14.01,2013-07-06 15:44:00,
2013-07-06 11:49:00,70.6,68.8,30.09,South,190,0.0,0.0,94,0.00,,,0.43,VWS V14.01,2013-07-06 15:49:00,
2013-07-06 11:54:00,70.6,68.5,30.09,South,190,0.0,0.0,93,0.00,,,0.43,VWS V14.01,2013-07-06 15:54:00,
2013-07-06 11:59:00,70.4,68.0,30.09,South,190,0.0,0.0,92,0.00,,,0.43,VWS V14.01,2013-07-06 15:59:00,
2013-07-06 12:04:00,70.6,68.2,30.09,South,190,0.0,0.0,92,0.00,,,0.43,VWS V14.01,2013-07-06 16:04:00,
2013-07-06 12:14:00,70.8,68.4,30.09,South,190,0.0,0.0,92,0.00,,,0.43,VWS V14.01,2013-07-06 16:14:00,
2013-07-06 12:19:00,70.6,67.8,30.10,South,190,0.0,0.0,91,0.00,,,0.43,VWS V14.01,2013-07-06 16:19:00,
2013-07-06 12:25:00,70.6,67.8,30.10,South,190,0.0,0.0,91,0.00,,,0.43,VWS V14.01,2013-07-06 16:25:00,
2013-07-06 12:30:00,70.8,68.1,30.10,South,190,0.0,0.0,91,0.00,,,0.43,VWS V14.01,2013-07-06 16:30:00,
2013-07-06 12:40:00,70.8,67.4,30.10,South,190,0.0,0.0,89,0.00,,,0.43,VWS V14.01,2013-07-06 16:40:00,
2013-07-06 12:45:00,70.8,67.4,30.10,SSW,198,0.0,0.0,89,0.00,,,0.43,VWS V14.01,2013-07-06 16:45:00,
2013-07-06 12:50:00,71.1,67.7,30.10,SSW,198,0.0,0.0,89,0.00,,,0.43,VWS V14.01,2013-07-06 16:50:00,
2013-07-06 13:04:00,71.5,67.4,30.10,SSW,198,0.0,0.0,87,0.00,,,0.43,VWS V14.01,2013-07-06 17:04:00,
2013-07-06 13:11:00,71.6,67.5,30.10,SSW,205,0.0,0.0,87,0.00,,,0.43,VWS V14.01,2013-07-06 17:11:00,
2013-07-06 13:16:00,71.5,67.1,30.10,SW,230,0.0,0.0,86,0.00,,,0.43,VWS V14.01,2013-07-06 17:16:00,
2013-07-06 13:21:00,71.3,66.9,30.10,SW,230,1.0,0.0,86,0.00,,,0.43,VWS V14.01,2013-07-06 17:21:00,
2013-07-06 13:26:00,71.3,66.9,30.10,SSW,192,0.0,0.0,86,0.00,,,0.43,VWS V14.01,2013-07-06 17:26:00,
2013-07-06 13:31:00,71.5,66.8,30.10,SSW,209,0.0,0.0,85,0.00,,,0.43,VWS V14.01,2013-07-06 17:31:00,
2013-07-06 13:36:00,71.8,67.1,30.10,SSW,209,0.0,0.0,85,0.00,,,0.43,VWS V14.01,2013-07-06 17:36:00,
2013-07-06 13:41:00,72.3,66.8,30.10,SSW,209,0.0,0.0,83,0.00,,,0.43,VWS V14.01,2013-07-06 17:41:00,
2013-07-06 13:51:00,72.8,66.3,30.10,SW,220,0.0,0.0,80,0.00,,,0.43,VWS V14.01,2013-07-06 17:51:00,
2013-07-06 13:56:00,73.3,67.1,30.10,SW,220,0.0,0.0,81,0.00,,,0.43,VWS V14.01,2013-07-06 17:56:00,
2013-07-06 14:06:00,73.5,65.9,30.10,SSW,206,0.0,0.0,77,0.00,,,0.43,VWS V14.01,2013-07-06 18:06:00,
2013-07-06 14:11:00,73.7,66.4,30.10,SSW,212,0.0,0.0,78,0.00,,,0.43,VWS V14.01,2013-07-06 18:11:00,
2013-07-06 14:16:00,74.0,66.7,30.10,SSW,212,0.0,0.0,78,0.00,,,0.43,VWS V14.01,2013-07-06 18:16:00,
2013-07-06 14:22:00,74.2,66.2,30.10,SW,220,1.0,0.0,76,0.00,,,0.43,VWS V14.01,2013-07-06 18:22:00,
2013-07-06 14:27:00,74.2,66.2,30.10,SW,224,0.0,0.0,76,0.00,,,0.43,VWS V14.01,2013-07-06 18:27:00,
2013-07-06 14:34:00,74.0,65.2,30.10,SW,225,1.0,0.0,74,0.00,,,0.43,VWS V14.01,2013-07-06 18:34:00,
2013-07-06 14:42:00,74.2,66.2,30.10,SW,225,0.0,0.0,76,0.00,,,0.43,VWS V14.01,2013-07-06 18:42:00,
2013-07-06 14:47:00,73.9,65.5,30.10,SW,225,0.0,0.0,75,0.00,,,0.43,VWS V14.01,2013-07-06 18:47:00,
2013-07-06 14:54:00,73.5,65.9,30.10,SW,225,0.0,0.0,77,0.00,,,0.43,VWS V14.01,2013-07-06 18:54:00,
2013-07-06 15:02:00,73.3,66.0,30.10,SW,220,0.0,0.0,78,0.00,,,0.43,VWS V14.01,2013-07-06 19:02:00,
2013-07-06 15:12:00,72.8,66.3,30.10,South,180,0.0,0.0,80,0.00,,,0.43,VWS V14.01,2013-07-06 19:12:00,
2013-07-06 15:22:00,72.3,66.8,30.10,WSW,251,0.0,0.0,83,0.00,,,0.43,VWS V14.01,2013-07-06 19:22:00,
2013-07-06 15:27:00,72.1,66.7,30.10,WSW,251,0.0,0.0,83,0.00,,,0.43,VWS V14.01,2013-07-06 19:27:00,
2013-07-06 15:32:00,72.0,66.9,30.10,WSW,251,0.0,0.0,84,0.00,,,0.43,VWS V14.01,2013-07-06 19:32:00,
2013-07-06 15:38:00,71.8,66.7,30.10,WSW,251,0.0,0.0,84,0.01,,,0.44,VWS V14.01,2013-07-06 19:38:00,
2013-07-06 15:44:00,71.3,65.5,30.10,WSW,244,0.0,0.0,82,0.01,,,0.44,VWS V14.01,2013-07-06 19:44:00,
2013-07-06 15:53:00,71.1,66.4,30.10,WSW,244,0.0,0.0,85,0.01,,,0.44,VWS V14.01,2013-07-06 19:53:00,
2013-07-06 15:58:00,71.3,66.9,30.10,WSW,244,0.0,0.0,86,0.01,,,0.44,VWS V14.01,2013-07-06 19:58:00,
2013-07-06 16:03:00,71.1,66.4,30.10,WSW,244,0.0,0.0,85,0.01,,,0.44,VWS V14.01,2013-07-06 20:03:00,
2013-07-06 16:08:00,70.9,65.8,30.10,WSW,244,0.0,0.0,84,0.01,,,0.44,VWS V14.01,2013-07-06 20:08:00,
2013-07-06 16:13:00,70.8,66.1,30.10,WSW,244,0.0,0.0,85,0.01,,,0.44,VWS V14.01,2013-07-06 20:13:00,
2013-07-06 16:18:00,70.6,65.9,30.10,WSW,244,0.0,0.0,85,0.01,,,0.44,VWS V14.01,2013-07-06 20:18:00,
2013-07-06 16:24:00,70.1,65.1,30.10,WSW,244,0.0,0.0,84,0.01,,,0.44,VWS V14.01,2013-07-06 20:24:00,
2013-07-06 16:34:00,69.6,64.2,30.11,WSW,244,0.0,0.0,83,0.01,,,0.44,VWS V14.01,2013-07-06 20:34:00,
2013-07-06 16:43:00,69.4,64.4,30.11,WSW,244,0.0,0.0,84,0.01,,,0.44,VWS V14.01,2013-07-06 20:43:00,
2013-07-06 16:48:00,69.3,64.6,30.12,WSW,244,0.0,0.0,85,0.00,,,0.44,VWS V14.01,2013-07-06 20:48:00,
2013-07-06 16:54:00,69.1,64.7,30.12,WSW,244,0.0,0.0,86,0.00,,,0.44,VWS V14.01,2013-07-06 20:54:00,
2013-07-06 17:09:00,68.6,64.2,30.12,SSW,197,0.0,0.0,86,0.00,,,0.44,VWS V14.01,2013-07-06 21:09:00,
2013-07-06 17:14:00,68.4,64.1,30.12,SSW,197,0.0,0.0,86,0.00,,,0.44,VWS V14.01,2013-07-06 21:14:00,
2013-07-06 17:19:00,68.3,63.6,30.12,SSW,197,0.0,0.0,85,0.00,,,0.44,VWS V14.01,2013-07-06 21:19:00,
2013-07-06 17:24:00,68.1,63.8,30.12,SSW,197,0.0,0.0,86,0.00,,,0.44,VWS V14.01,2013-07-06 21:24:00,
2013-07-06 17:29:00,68.1,63.8,30.12,SSW,197,0.0,0.0,86,0.00,,,0.44,VWS V14.01,2013-07-06 21:29:00,
2013-07-06 17:34:00,68.1,63.8,30.10,SSW,197,0.0,0.0,86,0.00,,,0.44,VWS V14.01,2013-07-06 21:34:00,
2013-07-06 17:39:00,68.1,64.1,30.10,SSW,197,0.0,0.0,87,0.01,,,0.45,VWS V14.01,2013-07-06 21:39:00,
2013-07-06 17:44:00,68.3,64.6,30.10,SSW,197,0.0,0.0,88,0.01,,,0.45,VWS V14.01,2013-07-06 21:44:00,
2013-07-06 17:54:00,68.3,64.6,30.09,SSW,197,0.0,0.0,88,0.01,,,0.45,VWS V14.01,2013-07-06 21:54:00,
2013-07-06 18:00:00,68.4,64.4,30.09,SSW,197,0.0,0.0,87,0.01,,,0.45,VWS V14.01,2013-07-06 22:00:00,
2013-07-06 18:05:00,68.6,64.2,30.08,SSW,197,0.0,0.0,86,0.01,,,0.45,VWS V14.01,2013-07-06 22:05:00,
2013-07-06 18:10:00,68.8,64.4,30.08,SSW,197,0.0,0.0,86,0.01,,,0.45,VWS V14.01,2013-07-06 22:10:00,
2013-07-06 18:20:00,68.8,64.8,30.09,SSW,197,0.0,0.0,87,0.01,,,0.45,VWS V14.01,2013-07-06 22:20:00,
2013-07-06 18:25:00,68.8,64.8,30.09,SSW,197,0.0,0.0,87,0.01,,,0.45,VWS V14.01,2013-07-06 22:25:00,
2013-07-06 18:31:00,68.8,64.8,30.09,SSW,197,0.0,0.0,87,0.01,,,0.45,VWS V14.01,2013-07-06 22:31:00,
2013-07-06 18:40:00,68.8,65.1,30.10,SSW,197,0.0,0.0,88,0.01,,,0.45,VWS V14.01,2013-07-06 22:40:00,
2013-07-06 18:46:00,68.8,64.8,30.10,SSW,197,0.0,0.0,87,0.00,,,0.45,VWS V14.01,2013-07-06 22:46:00,
2013-07-06 18:56:00,68.8,65.1,30.10,SSW,197,0.0,0.0,88,0.00,,,0.45,VWS V14.01,2013-07-06 22:56:00,
2013-07-06 19:04:00,68.8,65.1,30.10,SSW,197,0.0,0.0,88,0.00,,,0.45,VWS V14.01,2013-07-06 23:04:00,
2013-07-06 19:11:00,68.6,64.9,30.10,SSW,197,0.0,0.0,88,0.00,,,0.45,VWS V14.01,2013-07-06 23:11:00,
2013-07-06 19:17:00,68.6,64.9,30.10,SSW,197,0.0,0.0,88,0.00,,,0.45,VWS V14.01,2013-07-06 23:17:00,
2013-07-06 19:27:00,68.4,65.0,30.10,SSW,197,0.0,0.0,89,0.00,,,0.45,VWS V14.01,2013-07-06 23:27:00,
2013-07-06 19:34:00,68.4,65.0,30.10,SSW,197,0.0,0.0,89,0.00,,,0.45,VWS V14.01,2013-07-06 23:34:00,
2013-07-06 19:42:00,68.4,65.0,30.10,SSW,197,0.0,0.0,89,0.00,,,0.45,VWS V14.01,2013-07-06 23:42:00,
2013-07-06 19:47:00,68.4,65.0,30.10,SSW,197,0.0,0.0,89,0.00,,,0.45,VWS V14.01,2013-07-06 23:47:00,
2013-07-06 19:52:00,68.4,65.0,30.11,SSW,197,0.0,0.0,89,0.00,,,0.45,VWS V14.01,2013-07-06 23:52:00,
2013-07-06 19:57:00,68.4,65.0,30.11,SSW,197,0.0,0.0,89,0.00,,,0.45,VWS V14.01,2013-07-06 23:57:00,
2013-07-06 20:04:00,68.4,65.4,30.11,SSW,197,0.0,0.0,90,0.00,,,0.45,VWS V14.01,2013-07-07 00:04:00,
2013-07-06 20:12:00,68.4,65.4,30.11,SSW,197,0.0,0.0,90,0.00,,,0.45,VWS V14.01,2013-07-07 00:12:00,
2013-07-06 20:17:00,68.4,65.4,30.11,SSW,197,0.0,0.0,90,0.00,,,0.45,VWS V14.01,2013-07-07 00:17:00,
2013-07-06 20:22:00,68.4,65.7,30.11,SSW,197,0.0,0.0,91,0.00,,,0.45,VWS V14.01,2013-07-07 00:22:00,
2013-07-06 20:28:00,68.3,65.6,30.11,SSW,197,0.0,0.0,91,0.00,,,0.45,VWS V14.01,2013-07-07 00:28:00,
2013-07-06 20:33:00,68.3,65.6,30.11,SSW,197,0.0,0.0,91,0.00,,,0.45,VWS V14.01,2013-07-07 00:33:00,
2013-07-06 20:39:00,68.1,65.4,30.11,SSW,197,0.0,0.0,91,0.00,,,0.45,VWS V14.01,2013-07-07 00:39:00,
2013-07-06 20:44:00,68.1,65.7,30.11,SSW,197,0.0,0.0,92,0.00,,,0.45,VWS V14.01,2013-07-07 00:44:00,
2013-07-06 20:49:00,68.1,65.7,30.11,SSW,197,0.0,0.0,92,0.00,,,0.45,VWS V14.01,2013-07-07 00:49:00,
2013-07-06 21:00:00,67.9,65.5,30.11,SSW,197,0.0,0.0,92,0.00,,,0.45,VWS V14.01,2013-07-07 01:00:00,
2013-07-06 21:10:00,67.9,65.5,30.11,SSW,197,0.0,0.0,92,0.00,,,0.45,VWS V14.01,2013-07-07 01:10:00,
2013-07-06 21:16:00,67.9,65.5,30.11,SSW,197,0.0,0.0,92,0.00,,,0.45,VWS V14.01,2013-07-07 01:16:00,
2013-07-06 21:21:00,67.8,65.7,30.11,SSW,197,0.0,0.0,93,0.00,,,0.45,VWS V14.01,2013-07-07 01:21:00,
2013-07-06 21:27:00,67.8,65.7,30.11,SSW,197,0.0,0.0,93,0.00,,,0.45,VWS V14.01,2013-07-07 01:27:00,
2013-07-06 21:32:00,67.8,65.7,30.11,SSW,197,0.0,0.0,93,0.00,,,0.45,VWS V14.01,2013-07-07 01:32:00,
2013-07-06 21:42:00,67.8,65.7,30.12,SSW,197,0.0,0.0,93,0.00,,,0.45,VWS V14.01,2013-07-07 01:42:00,
2013-07-06 21:52:00,67.6,65.5,30.13,SSW,197,0.0,0.0,93,0.00,,,0.45,VWS V14.01,2013-07-07 01:52:00,
2013-07-06 21:57:00,67.6,65.5,30.13,SSW,197,0.0,0.0,93,0.00,,,0.45,VWS V14.01,2013-07-07 01:57:00,
2013-07-06 22:02:00,67.6,65.5,30.13,SSW,197,0.0,0.0,93,0.00,,,0.45,VWS V14.01,2013-07-07 02:02:00,
2013-07-06 22:18:00,67.3,65.2,30.14,SSW,197,0.0,0.0,93,0.00,,,0.45,VWS V14.01,2013-07-07 02:18:00,
2013-07-06 22:23:00,67.3,65.2,30.15,SSW,197,0.0,0.0,93,0.00,,,0.45,VWS V14.01,2013-07-07 02:23:00,
2013-07-06 22:28:00,67.3,65.2,30.15,SSW,197,0.0,0.0,93,0.00,,,0.45,VWS V14.01,2013-07-07 02:28:00,
2013-07-06 22:33:00,67.1,65.0,30.15,SSW,197,0.0,0.0,93,0.00,,,0.45,VWS V14.01,2013-07-07 02:33:00,
2013-07-06 22:43:00,67.1,64.7,30.15,SSW,197,0.0,0.0,92,0.00,,,0.45,VWS V14.01,2013-07-07 02:43:00,
2013-07-06 22:48:00,67.1,64.7,30.15,SSW,197,0.0,0.0,92,0.00,,,0.45,VWS V14.01,2013-07-07 02:48:00,
2013-07-06 22:53:00,67.1,64.7,30.15,SSW,197,0.0,0.0,92,0.00,,,0.45,VWS V14.01,2013-07-07 02:53:00,
2013-07-06 22:58:00,67.1,64.7,30.15,SSW,197,0.0,0.0,92,0.00,,,0.45,VWS V14.01,2013-07-07 02:58:00,
2013-07-06 23:00:00,66.9,65.1,30.12,SSW,197,0.0,0.0,94,0.00,,,0.00,VWS V14.01,2013-07-07 03:00:00,
2013-07-06 23:01:00,66.9,65.1,30.12,SSW,197,0.0,0.0,94,0.00,,,0.00,VWS V14.01,2013-07-07 03:01:00,
2013-07-06 23:03:00,66.9,64.5,30.14,SSW,197,0.0,0.0,92,0.00,,,0.45,VWS V14.01,2013-07-07 03:03:00,
2013-07-06 23:06:00,66.9,65.1,30.12,SSW,197,0.0,0.0,94,0.00,,,0.00,VWS V14.01,2013-07-07 03:06:00,
2013-07-06 23:08:00,66.9,64.5,30.14,SSW,197,0.0,0.0,92,0.00,,,0.45,VWS V14.01,2013-07-07 03:08:00,
2013-07-06 23:10:00,66.9,65.1,30.12,SSW,197,0.0,0.0,94,0.00,,,0.00,VWS V14.01,2013-07-07 03:10:00,
2013-07-06 23:11:00,66.9,65.1,30.12,SSW,197,0.0,0.0,94,0.00,,,0.00,VWS V14.01,2013-07-07 03:11:00,
2013-07-06 23:14:00,66.9,64.5,30.14,SSW,197,0.0,0.0,92,0.00,,,0.45,VWS V14.01,2013-07-07 03:14:00,
2013-07-06 23:16:00,66.9,65.1,30.12,SSW,197,0.0,0.0,94,0.00,,,0.00,VWS V14.01,2013-07-07 03:16:00,
2013-07-06 23:20:00,66.9,65.1,30.12,SSW,197,0.0,0.0,94,0.00,,,0.00,VWS V14.01,2013-07-07 03:20:00,
2013-07-06 23:21:00,66.9,65.1,30.12,SSW,197,0.0,0.0,94,0.00,,,0.00,VWS V14.01,2013-07-07 03:21:00,
2013-07-06 23:23:00,66.9,64.8,30.14,SSW,197,0.0,0.0,93,0.00,,,0.45,VWS V14.01,2013-07-07 03:23:00,
2013-07-06 23:26:00,66.9,65.1,30.12,SSW,197,0.0,0.0,94,0.00,,,0.00,VWS V14.01,2013-07-07 03:26:00,
2013-07-06 23:28:00,66.9,64.8,30.14,SSW,197,0.0,0.0,93,0.00,,,0.45,VWS V14.01,2013-07-07 03:28:00,
2013-07-06 23:30:00,66.9,65.1,30.12,SSW,197,0.0,0.0,94,0.00,,,0.00,VWS V14.01,2013-07-07 03:30:00,
2013-07-06 23:31:00,66.9,65.1,30.12,SSW,197,0.0,0.0,94,0.00,,,0.00,VWS V14.01,2013-07-07 03:31:00,
2013-07-06 23:34:00,66.9,64.8,30.13,SSW,197,0.0,0.0,93,0.00,,,0.45,VWS V14.01,2013-07-07 03:34:00,
2013-07-06 23:36:00,67.1,65.3,30.12,SSW,197,0.0,0.0,94,0.00,,,0.00,VWS V14.01,2013-07-07 03:36:00,
2013-07-06 23:39:00,66.9,64.8,30.13,SSW,197,0.0,0.0,93,0.00,,,0.45,VWS V14.01,2013-07-07 03:39:00,
2013-07-06 23:40:00,67.1,65.3,30.12,SSW,197,1.0,0.0,94,0.00,,,0.00,VWS V14.01,2013-07-07 03:40:00,
2013-07-06 23:41:00,67.1,65.3,30.12,SSW,197,0.0,0.0,94,0.00,,,0.00,VWS V14.01,2013-07-07 03:41:00,
2013-07-06 23:44:00,66.9,64.8,30.13,SSW,197,0.0,0.0,93,0.00,,,0.45,VWS V14.01,2013-07-07 03:44:00,
2013-07-06 23:46:00,67.1,65.3,30.11,SSW,197,0.0,0.0,94,0.00,,,0.00,VWS V14.01,2013-07-07 03:46:00,
2013-07-06 23:49:00,66.9,64.8,30.13,SSW,197,0.0,0.0,93,0.00,,,0.45,VWS V14.01,2013-07-07 03:49:00,
2013-07-06 23:50:00,66.9,65.4,30.11,SSW,197,0.0,0.0,95,0.00,,,0.00,VWS V14.01,2013-07-07 03:50:00,
2013-07-06 23:51:00,66.9,65.4,30.11,SSW,197,0.0,0.0,95,0.00,,,0.00,VWS V14.01,2013-07-07 03:51:00,
2013-07-06 23:56:00,66.8,65.3,30.11,SSW,197,0.0,0.0,95,0.00,,,0.00,VWS V14.01,2013-07-07 03:56:00,
2013-07-06 23:59:00,66.9,64.8,30.13,SSW,197,0.0,0.0,93,0.00,,,0.45,VWS V14.01,2013-07-07 03:59:00,